Longreach, Australia
Current Conditions -  °F | °C
As of 12:34 PM on Tuesday 21 Oct 2014 (Local Time) from YLRE Reporting Station
Clear Clear  
Wind Chill: 91°   Ceiling: Unl
Heat Index: 91°   Visibility: 6mi
Dew Point: 41°   Wind: 17mph
Humidity: 17%   Direction: 70°ENE
Pressure: 30.12"   Gusts: 30mph
Location:  23.44°S, 144.25°E
Report Text: YLRE 210234Z AUTO 07015G26KT 9999 // NCD 33/05 Q1020
Loading
Personal Weather Stations






























Interactive Weather Map
Tropical Storm Tracking
New forecast layout! Learn more

10-Day Weather Forecast

Advertisements
Track Severe Weather on mobile